Time;durP1;ratioP1;P1;durP2;ratioP2;P2;SDS_P1;SDS_P2;PMS_P1;PMS_P2;Temp;Humidity;BMP_temperature;BMP_pressure;BME280_temperature;BME280_humidity;BME280_pressure;Samples;Min_cycle;Max_cycle;Signal;HPM_P1;HPM_P2
2021/11/16 00:00:00;;;;;;;50.47;27.87;;;8.30;99.90;;;;;;5014218;28;20037;-84
2021/11/16 00:02:26;;;;;;;50.60;27.27;;;8.40;99.90;;;;;;5014570;28;20040;-85
2021/11/16 00:04:52;;;;;;;46.50;25.57;;;8.30;99.90;;;;;;5014096;28;20029;-84
2021/11/16 00:07:19;;;;;;;53.40;27.43;;;8.30;99.90;;;;;;5014905;28;20167;-84
2021/11/16 00:09:47;;;;;;;45.97;24.87;;;8.40;99.90;;;;;;5015170;28;20038;-84
2021/11/16 00:12:13;;;;;;;49.50;25.92;;;8.30;99.90;;;;;;5015301;28;20030;-84
2021/11/16 00:14:40;;;;;;;44.43;24.33;;;8.30;99.90;;;;;;5014748;28;20107;-84
2021/11/16 00:17:06;;;;;;;48.83;24.13;;;8.30;99.90;;;;;;5014970;28;20103;-84
2021/11/16 00:19:33;;;;;;;46.07;22.90;;;8.30;99.90;;;;;;5014279;28;20041;-84
2021/11/16 00:21:58;;;;;;;49.50;25.30;;;8.30;99.90;;;;;;5014954;28;20033;-83
2021/11/16 00:24:39;;;;;;;51.60;24.80;;;8.30;99.90;;;;;;4998248;28;20141;-83
2021/11/16 00:27:06;;;;;;;49.60;25.13;;;8.30;99.90;;;;;;5032926;28;20075;-83
2021/11/16 00:29:33;;;;;;;44.63;23.60;;;8.30;99.90;;;;;;5031557;28;20183;-83
2021/11/16 00:31:59;;;;;;;48.10;24.30;;;8.30;99.90;;;;;;5013456;28;20052;-83
2021/11/16 00:34:25;;;;;;;47.80;23.43;;;8.30;99.90;;;;;;5001009;28;20129;-84
2021/11/16 00:36:52;;;;;;;48.57;23.97;;;8.30;99.90;;;;;;5017801;28;20029;-83
2021/11/16 00:39:18;;;;;;;44.53;23.40;;;8.20;99.90;;;;;;5016839;28;20121;-83
2021/11/16 00:41:44;;;;;;;48.50;24.40;;;8.30;99.90;;;;;;5017223;28;20096;-84
2021/11/16 00:44:10;;;;;;;48.20;24.53;;;8.30;99.90;;;;;;5035526;28;20056;-83
2021/11/16 00:46:36;;;;;;;44.93;22.00;;;8.20;99.90;;;;;;5000625;28;20435;-84
2021/11/16 00:49:02;;;;;;;46.17;23.23;;;8.20;99.90;;;;;;5016814;28;20056;-83
2021/11/16 00:51:28;;;;;;;47.83;24.30;;;8.20;99.90;;;;;;5016754;28;20026;-83
2021/11/16 00:53:54;;;;;;;43.77;23.30;;;8.20;99.90;;;;;;5016533;28;20039;-83
2021/11/16 00:56:20;;;;;;;50.27;23.87;;;8.20;99.90;;;;;;5016646;28;20032;-83
2021/11/16 00:58:45;;;;;;;49.20;23.30;;;8.20;99.90;;;;;;5016734;28;20025;-84
2021/11/16 01:01:11;;;;;;;48.73;23.33;;;8.20;99.90;;;;;;5033505;28;20043;-83
2021/11/16 01:03:37;;;;;;;48.70;24.30;;;8.20;99.90;;;;;;4999912;28;20030;-84
2021/11/16 01:06:03;;;;;;;45.13;22.73;;;8.20;99.90;;;;;;5016513;28;20532;-83
2021/11/16 01:08:28;;;;;;;47.77;24.53;;;8.20;99.90;;;;;;5034601;28;20029;-84
2021/11/16 01:10:55;;;;;;;50.27;23.93;;;8.20;99.90;;;;;;5033735;28;20044;-83
2021/11/16 01:13:23;;;;;;;43.13;22.80;;;8.20;99.90;;;;;;5034095;28;20061;-83
2021/11/16 01:15:53;;;;;;;45.00;21.10;;;8.20;99.90;;;;;;5016280;28;20030;-84
2021/11/16 01:18:21;;;;;;;43.53;21.53;;;8.20;99.90;;;;;;5016241;28;20132;-83
2021/11/16 01:20:47;;;;;;;45.37;21.77;;;8.20;99.90;;;;;;5016167;28;20083;-83
2021/11/16 01:23:14;;;;;;;40.70;21.13;;;8.20;99.90;;;;;;5016449;28;20037;-83
2021/11/16 01:25:43;;;;;;;41.30;21.23;;;8.20;99.90;;;;;;5016327;28;20033;-84
2021/11/16 01:28:11;;;;;;;44.87;22.40;;;8.20;99.90;;;;;;5034505;28;20049;-83
2021/11/16 01:30:41;;;;;;;40.97;21.73;;;8.20;99.90;;;;;;5033491;28;20486;-83
2021/11/16 01:33:12;;;;;;;44.22;21.92;;;8.20;99.90;;;;;;5016273;28;20033;-84
2021/11/16 01:35:39;;;;;;;43.50;21.20;;;8.20;99.90;;;;;;5034151;28;20375;-83
2021/11/16 01:38:07;;;;;;;40.93;22.23;;;8.10;99.90;;;;;;5016425;28;20104;-84
2021/11/16 01:40:34;;;;;;;40.10;21.23;;;8.10;99.90;;;;;;5015759;28;20144;-84
2021/11/16 01:43:03;;;;;;;35.70;18.90;;;8.10;99.90;;;;;;5034061;28;20117;-83
2021/11/16 01:45:29;;;;;;;36.03;19.08;;;8.10;99.90;;;;;;5016062;28;20029;-83
2021/11/16 01:47:55;;;;;;;39.80;21.03;;;8.10;99.90;;;;;;5016173;28;20410;-83
2021/11/16 01:50:24;;;;;;;39.73;20.87;;;8.10;99.90;;;;;;5015556;28;20065;-84
2021/11/16 01:52:51;;;;;;;43.07;20.77;;;8.10;99.90;;;;;;5016008;28;20041;-83
2021/11/16 01:55:20;;;;;;;41.07;20.13;;;8.20;99.90;;;;;;5033021;28;20029;-83
2021/11/16 01:57:46;;;;;;;39.00;20.25;;;8.20;99.90;;;;;;5016150;28;20115;-84
2021/11/16 02:00:18;;;;;;;41.80;21.60;;;8.20;99.90;;;;;;5033345;28;20029;-83
2021/11/16 02:02:44;;;;;;;38.50;20.33;;;8.10;99.90;;;;;;5033972;28;20037;-83
2021/11/16 02:05:11;;;;;;;38.80;20.43;;;8.10;99.90;;;;;;5033215;28;20025;-83
2021/11/16 02:07:36;;;;;;;38.63;19.53;;;8.10;99.90;;;;;;5034146;28;20037;-83
2021/11/16 02:10:04;;;;;;;41.60;21.70;;;8.20;99.90;;;;;;4999488;28;20043;-84
2021/11/16 02:12:30;;;;;;;37.47;20.20;;;8.10;99.90;;;;;;5033793;28;20398;-84
2021/11/16 02:14:56;;;;;;;36.83;20.13;;;8.10;99.90;;;;;;5034088;28;20021;-83
2021/11/16 02:17:22;;;;;;;37.83;18.93;;;8.20;99.90;;;;;;5033912;28;20331;-84
2021/11/16 02:19:48;;;;;;;37.47;19.63;;;8.20;99.90;;;;;;5033265;28;20029;-83
2021/11/16 02:22:13;;;;;;;41.30;21.27;;;8.10;99.90;;;;;;5015532;28;20030;-83
2021/11/16 02:24:40;;;;;;;37.20;20.30;;;8.10;99.90;;;;;;5015807;28;20401;-84
2021/11/16 02:27:06;;;;;;;40.57;20.93;;;8.00;99.90;;;;;;5015672;28;20051;-84
2021/11/16 02:29:31;;;;;;;39.53;20.47;;;8.10;99.90;;;;;;5015620;28;20029;-84
2021/11/16 02:31:57;;;;;;;37.93;19.23;;;8.10;99.90;;;;;;5015800;28;20401;-84
2021/11/16 02:34:25;;;;;;;40.53;19.73;;;8.10;99.90;;;;;;5033825;28;20478;-84
2021/11/16 02:36:51;;;;;;;35.50;20.03;;;8.00;99.90;;;;;;5033487;28;20034;-83
2021/11/16 02:39:17;;;;;;;37.33;20.00;;;8.00;99.90;;;;;;5015036;28;20686;-84
2021/11/16 02:41:51;;;;;;;36.37;20.03;;;8.10;99.90;;;;;;5015886;28;20037;-84
2021/11/16 02:44:18;;;;;;;37.77;20.20;;;8.10;99.90;;;;;;5015549;28;20099;-84
2021/11/16 02:46:46;;;;;;;39.33;20.80;;;8.10;99.90;;;;;;5033673;28;20509;-84
2021/11/16 02:49:12;;;;;;;39.20;20.83;;;8.20;99.90;;;;;;5033095;28;20116;-84
2021/11/16 02:51:39;;;;;;;41.00;22.77;;;8.10;99.90;;;;;;5015634;28;20076;-83
2021/11/16 02:54:17;;;;;;;36.80;20.90;;;8.10;99.90;;;;;;5015686;28;20033;-84
2021/11/16 02:56:44;;;;;;;41.43;21.37;;;8.20;99.90;;;;;;5033339;28;20099;-84
2021/11/16 02:59:10;;;;;;;40.43;21.80;;;8.10;99.90;;;;;;5014953;28;20026;-83
2021/11/16 03:01:37;;;;;;;41.13;22.40;;;8.10;99.90;;;;;;5015518;28;20026;-83
2021/11/16 03:04:04;;;;;;;39.90;21.93;;;8.00;99.90;;;;;;5015125;28;20025;-84
2021/11/16 03:06:29;;;;;;;38.40;21.17;;;8.00;99.90;;;;;;5015237;28;20482;-83
2021/11/16 03:08:56;;;;;;;40.37;21.27;;;8.00;99.90;;;;;;5033277;28;20195;-83
2021/11/16 03:11:21;;;;;;;41.03;21.60;;;8.10;99.90;;;;;;5015659;28;20041;-83
2021/11/16 03:13:47;;;;;;;44.10;22.53;;;8.00;99.90;;;;;;5033891;28;20481;-84
2021/11/16 03:16:16;;;;;;;40.63;21.23;;;8.00;99.90;;;;;;5033506;28;20031;-84
2021/11/16 03:18:53;;;;;;;40.22;21.35;;;8.00;99.90;;;;;;5015713;28;20394;-84
2021/11/16 03:21:21;;;;;;;39.00;20.87;;;8.00;99.90;;;;;;5015876;28;20163;-84
2021/11/16 03:23:50;;;;;;;39.57;20.77;;;8.00;99.90;;;;;;5015463;28;20125;-84
2021/11/16 03:26:17;;;;;;;40.85;22.35;;;8.00;99.90;;;;;;5032487;23;20199;-86
2021/11/16 03:28:47;;;;;;;41.00;21.30;;;8.00;99.90;;;;;;4993945;28;20034;-85
2021/11/16 03:31:21;;;;;;;37.33;20.77;;;8.00;99.90;;;;;;4993714;28;20087;-86
2021/11/16 03:33:49;;;;;;;39.67;20.27;;;8.10;99.90;;;;;;4994066;28;20040;-86
2021/11/16 03:36:16;;;;;;;39.97;21.77;;;8.00;99.90;;;;;;4994041;28;20030;-86
2021/11/16 03:38:43;;;;;;;36.87;20.63;;;8.10;99.90;;;;;;4994252;28;20036;-86
2021/11/16 03:41:10;;;;;;;39.73;21.10;;;8.00;99.90;;;;;;4995179;28;20026;-86
2021/11/16 03:43:36;;;;;;;40.67;20.70;;;8.10;99.90;;;;;;4996492;28;20034;-86
2021/11/16 03:46:03;;;;;;;36.63;20.30;;;8.00;99.90;;;;;;5012475;28;20033;-85
2021/11/16 03:48:29;;;;;;;39.53;21.43;;;8.00;99.90;;;;;;4996847;28;20092;-86
2021/11/16 03:50:56;;;;;;;36.73;19.47;;;8.00;99.90;;;;;;4979719;28;20125;-86
2021/11/16 03:53:23;;;;;;;38.47;20.97;;;8.10;99.90;;;;;;5009576;28;20036;-86
2021/11/16 03:55:49;;;;;;;38.67;21.40;;;8.10;99.90;;;;;;4993558;28;20033;-85
2021/11/16 03:58:18;;;;;;;39.73;21.20;;;8.10;99.90;;;;;;5009821;28;20041;-86
2021/11/16 04:00:51;;;;;;;38.00;20.17;;;8.10;99.90;;;;;;4976449;28;20068;-86
2021/11/16 04:03:21;;;;;;;38.77;20.57;;;8.10;99.90;;;;;;4992333;28;20144;-86
2021/11/16 04:05:47;;;;;;;36.70;20.00;;;8.20;99.90;;;;;;5009490;28;20030;-86
2021/11/16 04:08:13;;;;;;;38.83;21.93;;;8.10;99.90;;;;;;5009316;28;20508;-85
2021/11/16 04:10:39;;;;;;;39.20;21.03;;;8.10;99.90;;;;;;5009408;28;20120;-86
2021/11/16 04:13:05;;;;;;;37.63;21.87;;;8.10;99.90;;;;;;4993409;28;20439;-86
2021/11/16 04:15:37;;;;;;;40.13;21.50;;;8.00;99.90;;;;;;4993954;28;20034;-87
2021/11/16 04:18:03;;;;;;;38.33;21.23;;;8.00;99.90;;;;;;4993708;28;20041;-86
2021/11/16 04:20:31;;;;;;;41.53;21.77;;;8.00;99.90;;;;;;5010567;28;20022;-85
2021/11/16 04:22:59;;;;;;;45.00;23.63;;;8.10;99.90;;;;;;4994037;28;20034;-85
2021/11/16 04:25:26;;;;;;;43.17;22.77;;;8.10;99.90;;;;;;5010455;28;20030;-85
2021/11/16 04:27:53;;;;;;;37.77;20.93;;;8.10;99.90;;;;;;5010319;28;20037;-85
2021/11/16 04:30:22;;;;;;;39.30;21.87;;;8.10;99.90;;;;;;5009532;28;20034;-86
2021/11/16 04:32:48;;;;;;;37.50;21.00;;;8.10;99.90;;;;;;5009962;28;20034;-86
2021/11/16 04:35:15;;;;;;;34.97;20.07;;;8.10;99.90;;;;;;4977234;28;20397;-86
2021/11/16 04:37:42;;;;;;;37.30;21.37;;;8.10;99.90;;;;;;5009849;28;20030;-85
2021/11/16 04:40:11;;;;;;;37.90;21.13;;;8.10;99.90;;;;;;5009130;28;20402;-86
2021/11/16 04:42:37;;;;;;;42.47;22.00;;;8.20;99.90;;;;;;5009802;28;20497;-85
2021/11/16 04:45:05;;;;;;;40.27;20.97;;;8.20;99.90;;;;;;4992942;28;20102;-85
2021/11/16 04:47:37;;;;;;;37.47;20.17;;;8.20;99.90;;;;;;5001039;28;20029;-86
2021/11/16 04:50:18;;;;;;;38.53;21.33;;;8.20;99.90;;;;;;5008866;28;20034;-85
2021/11/16 05:03:49;;;;;;;33.90;18.80;;;8.20;99.90;;;;;;5010985;28;20055;-85
2021/11/16 05:06:14;;;;;;;37.10;21.03;;;8.10;99.90;;;;;;5010804;28;20034;-85
2021/11/16 05:08:44;;;;;;;34.80;19.40;;;8.10;99.90;;;;;;5009786;28;20030;-85
2021/11/16 05:11:10;;;;;;;35.37;20.20;;;8.00;99.90;;;;;;5009226;28;20030;-86
2021/11/16 05:13:39;;;;;;;33.57;19.17;;;8.00;99.90;;;;;;5010611;28;20080;-85
2021/11/16 05:16:08;;;;;;;33.93;18.57;;;8.00;99.90;;;;;;5009360;28;20022;-85
2021/11/16 05:18:34;;;;;;;34.58;19.42;;;8.00;99.90;;;;;;5027506;28;20120;-86
2021/11/16 05:21:00;;;;;;;35.63;19.50;;;8.10;99.90;;;;;;5012814;28;20092;-86
2021/11/16 05:23:26;;;;;;;37.30;20.83;;;8.10;99.90;;;;;;4997425;28;20087;-84
2021/11/16 05:25:54;;;;;;;38.80;20.33;;;8.10;99.90;;;;;;5016189;28;20048;-88
2021/11/16 05:28:21;;;;;;;30.80;18.70;;;8.20;99.90;;;;;;5000530;28;20405;-88
2021/11/16 05:30:47;;;;;;;31.27;19.37;;;8.20;99.90;;;;;;5015471;28;20033;-87
2021/11/16 05:33:14;;;;;;;35.03;20.17;;;8.20;99.90;;;;;;4999363;28;20187;-86
2021/11/16 05:35:40;;;;;;;34.87;20.27;;;8.20;99.90;;;;;;5016194;28;20370;-86
2021/11/16 05:38:07;;;;;;;34.83;20.53;;;8.20;99.90;;;;;;4999840;28;20032;-85
2021/11/16 05:40:33;;;;;;;38.50;19.60;;;8.10;99.90;;;;;;5016188;28;20167;-85
2021/11/16 05:42:59;;;;;;;38.03;20.13;;;8.20;99.90;;;;;;5002616;28;20033;-88
2021/11/16 05:45:25;;;;;;;32.33;18.77;;;8.10;99.90;;;;;;4999985;28;20056;-83
2021/11/16 05:47:56;;;;;;;35.70;19.17;;;8.20;99.90;;;;;;5015493;28;20208;-84
2021/11/16 05:50:21;;;;;;;34.87;20.03;;;8.10;99.90;;;;;;5016106;28;20129;-85
2021/11/16 05:52:49;;;;;;;32.17;18.97;;;8.20;99.90;;;;;;5016373;28;20463;-85
2021/11/16 05:55:14;;;;;;;32.47;18.50;;;8.10;99.90;;;;;;5034789;28;20474;-84
2021/11/16 05:57:40;;;;;;;37.53;20.10;;;8.10;99.90;;;;;;5016565;28;20060;-85
2021/11/16 06:00:09;;;;;;;33.77;19.53;;;8.10;99.90;;;;;;5015769;28;20061;-85
2021/11/16 06:02:39;;;;;;;34.28;19.92;;;8.00;99.90;;;;;;5032786;28;20032;-84
2021/11/16 06:05:06;;;;;;;34.80;19.73;;;8.00;99.90;;;;;;4999935;28;20061;-84
2021/11/16 06:07:31;;;;;;;37.20;19.67;;;8.10;99.90;;;;;;5015606;28;20394;-85
2021/11/16 06:09:57;;;;;;;33.63;19.10;;;8.00;99.90;;;;;;4999501;28;20033;-85
2021/11/16 06:12:23;;;;;;;39.20;19.33;;;8.00;99.90;;;;;;5000740;28;20102;-85
2021/11/16 06:14:49;;;;;;;39.00;20.90;;;8.10;99.90;;;;;;5000370;28;20383;-85
2021/11/16 06:17:14;;;;;;;40.80;20.73;;;8.10;99.90;;;;;;5032870;28;20029;-85
2021/11/16 06:19:41;;;;;;;36.83;21.47;;;8.10;99.90;;;;;;5015623;28;20033;-85
2021/11/16 06:22:09;;;;;;;40.60;21.23;;;8.10;99.90;;;;;;5000825;28;20437;-85
2021/11/16 06:24:35;;;;;;;38.55;20.98;;;8.10;99.90;;;;;;5017154;28;20026;-84
2021/11/16 06:27:01;;;;;;;36.47;20.93;;;8.10;99.90;;;;;;5033505;28;20048;-85
2021/11/16 06:29:27;;;;;;;38.87;20.20;;;8.00;99.90;;;;;;5015666;28;20059;-85
2021/11/16 06:31:53;;;;;;;35.30;20.00;;;8.10;99.90;;;;;;5032935;28;20033;-85
2021/11/16 06:34:18;;;;;;;38.67;21.07;;;8.10;99.90;;;;;;5016869;28;20390;-84
2021/11/16 06:36:45;;;;;;;40.70;22.03;;;8.10;99.90;;;;;;5033604;28;20119;-85
2021/11/16 06:39:16;;;;;;;38.63;21.17;;;8.10;99.90;;;;;;5016076;28;20528;-85
2021/11/16 06:41:44;;;;;;;36.83;21.10;;;8.10;99.90;;;;;;5014710;28;20578;-86
2021/11/16 06:44:13;;;;;;;38.27;20.77;;;8.10;99.90;;;;;;4998938;28;20489;-85
2021/11/16 06:46:40;;;;;;;39.20;21.20;;;8.00;99.90;;;;;;4999005;28;20033;-85
2021/11/16 06:49:08;;;;;;;36.97;21.07;;;8.10;99.90;;;;;;5015982;28;20272;-85
2021/11/16 06:51:38;;;;;;;44.17;22.47;;;8.00;99.90;;;;;;5032465;28;20163;-85
2021/11/16 06:54:09;;;;;;;39.40;21.87;;;8.00;99.90;;;;;;5030762;28;20474;-85
2021/11/16 06:56:36;;;;;;;42.80;22.13;;;8.00;99.90;;;;;;4998159;28;20030;-85
2021/11/16 06:59:02;;;;;;;37.10;20.73;;;8.00;99.90;;;;;;5014084;28;20117;-86
2021/11/16 07:01:32;;;;;;;38.55;21.50;;;8.00;99.90;;;;;;5013521;28;20481;-86
2021/11/16 07:04:01;;;;;;;46.67;23.80;;;7.90;99.90;;;;;;4996910;28;20038;-85
2021/11/16 07:06:30;;;;;;;55.37;27.80;;;8.10;99.90;;;;;;5014096;28;20029;-87
2021/11/16 07:08:57;;;;;;;53.70;27.45;;;8.10;99.90;;;;;;4997265;28;20513;-86
2021/11/16 07:11:24;;;;;;;65.97;32.30;;;8.00;99.90;;;;;;5031860;28;20113;-87
2021/11/16 07:14:05;;;;;;;63.43;30.00;;;8.00;99.90;;;;;;4997691;28;20478;-86
2021/11/16 07:16:34;;;;;;;65.20;31.40;;;7.90;99.90;;;;;;5013936;28;20442;-88
2021/11/16 07:19:04;;;;;;;67.53;32.35;;;8.00;99.90;;;;;;4997956;28;20033;-89
2021/11/16 07:21:45;;;;;;;64.33;31.47;;;8.10;99.90;;;;;;4998062;28;20040;-89
2021/11/16 07:24:14;;;;;;;69.60;32.70;;;8.10;99.90;;;;;;5014819;28;20030;-89
2021/11/16 07:26:42;;;;;;;117.83;35.70;;;8.20;99.90;;;;;;5015163;28;20041;-89
2021/11/16 07:29:15;;;;;;;71.83;31.97;;;8.10;99.90;;;;;;4998149;28;20120;-88
2021/11/16 07:31:43;;;;;;;71.13;31.03;;;8.10;99.90;;;;;;4997987;28;20061;-85
2021/11/16 07:34:20;;;;;;;68.33;32.20;;;8.10;99.90;;;;;;4998437;28;20052;-87
2021/11/16 07:37:01;;;;;;;66.53;31.13;;;8.10;99.90;;;;;;5031527;28;20031;-83
2021/11/16 07:39:28;;;;;;;64.40;31.83;;;8.10;99.90;;;;;;5017170;28;20021;-82
2021/11/16 07:42:21;;;;;;;65.60;30.00;;;8.00;99.90;;;;;;5001523;28;20029;-82
2021/11/16 07:45:13;;;;;;;64.77;30.33;;;8.00;99.90;;;;;;5016512;28;20033;-82
2021/11/16 07:47:55;;;;;;;65.90;30.60;;;8.00;99.90;;;;;;5017958;28;20037;-82
2021/11/16 07:50:39;;;;;;;63.73;30.07;;;8.00;99.90;;;;;;5017018;28;20037;-82
2021/11/16 07:53:19;;;;;;;67.70;30.10;;;8.00;99.90;;;;;;5035819;28;20116;-83
2021/11/16 07:56:14;;;;;;;68.10;30.73;;;7.90;99.90;;;;;;5017886;28;20160;-82
2021/11/16 07:58:51;;;;;;;68.53;31.03;;;7.90;99.90;;;;;;5036163;28;20045;-83
2021/11/16 08:09:49;;;;;;;74.20;31.97;;;8.00;99.90;;;;;;5009782;28;20045;-88
2021/11/16 08:12:32;;;;;;;66.60;31.35;;;8.00;99.90;;;;;;5014103;28;20038;-89
2021/11/16 08:15:03;;;;;;;70.77;32.13;;;8.00;99.90;;;;;;4995155;28;20040;-88
2021/11/16 08:17:31;;;;;;;64.90;30.10;;;7.90;99.90;;;;;;4998094;28;20069;-86
2021/11/16 08:20:00;;;;;;;66.50;29.33;;;8.00;99.90;;;;;;5011610;28;20282;-85
2021/11/16 08:22:26;;;;;;;66.77;30.23;;;7.90;99.90;;;;;;4994006;28;20052;-86
2021/11/16 08:24:54;;;;;;;69.33;30.77;;;7.90;99.90;;;;;;4994761;28;20030;-85
2021/11/16 08:27:31;;;;;;;72.07;30.73;;;8.00;99.90;;;;;;4993481;28;20127;-88
2021/11/16 08:30:14;;;;;;;64.20;29.77;;;8.00;99.90;;;;;;5010606;28;20029;-86
2021/11/16 08:32:42;;;;;;;65.37;29.93;;;8.00;99.90;;;;;;4993628;28;20038;-87
2021/11/16 08:35:13;;;;;;;68.23;30.17;;;8.00;99.90;;;;;;4994188;28;20124;-88
2021/11/16 08:37:41;;;;;;;72.73;31.40;;;8.00;99.90;;;;;;4994368;28;20268;-84
2021/11/16 08:40:13;;;;;;;65.97;30.10;;;7.90;99.90;;;;;;5009632;28;20026;-86
2021/11/16 08:42:51;;;;;;;67.40;29.83;;;8.00;99.90;;;;;;4993912;28;20037;-88
2021/11/16 08:45:21;;;;;;;63.17;29.97;;;8.00;99.90;;;;;;4993970;28;20022;-84
2021/11/16 08:47:57;;;;;;;66.90;28.83;;;8.00;99.90;;;;;;4993075;28;20481;-84
2021/11/16 08:50:32;;;;;;;64.67;29.73;;;8.00;99.90;;;;;;4991779;28;20029;-86
2021/11/16 08:53:01;;;;;;;60.97;28.13;;;8.00;99.90;;;;;;5010259;28;20041;-85
2021/11/16 08:55:33;;;;;;;63.25;29.77;;;8.10;99.90;;;;;;4999755;28;20032;-86
2021/11/16 08:58:01;;;;;;;66.43;30.17;;;8.00;99.90;;;;;;5003833;28;20463;-85
2021/11/16 09:00:40;;;;;;;66.60;29.90;;;8.10;99.90;;;;;;5003650;28;20053;-85
2021/11/16 09:03:07;;;;;;;66.00;30.48;;;8.00;99.90;;;;;;5023241;28;20108;-85
2021/11/16 09:05:43;;;;;;;64.70;29.63;;;8.00;99.90;;;;;;4999268;28;20034;-85
2021/11/16 09:08:18;;;;;;;67.03;29.63;;;8.00;99.90;;;;;;4996803;28;20044;-85
2021/11/16 09:10:46;;;;;;;61.07;29.17;;;8.00;99.90;;;;;;4995624;28;20034;-85
2021/11/16 09:13:14;;;;;;;62.23;28.83;;;8.00;99.90;;;;;;4995959;28;20030;-85
2021/11/16 09:15:49;;;;;;;59.80;27.70;;;8.00;99.90;;;;;;4995526;28;20043;-85
2021/11/16 09:18:29;;;;;;;68.73;30.70;;;8.10;99.90;;;;;;5012796;28;20026;-85
2021/11/16 09:21:10;;;;;;;69.87;29.70;;;8.10;99.90;;;;;;4995830;28;20026;-85
2021/11/16 09:23:43;;;;;;;64.80;30.50;;;8.00;99.90;;;;;;4998290;28;20034;-85
2021/11/16 09:28:58;;;;;;;66.63;29.57;;;8.00;99.90;;;;;;4997320;28;20100;-85
2021/11/16 09:31:34;;;;;;;70.03;30.57;;;8.00;99.90;;;;;;4995611;28;20049;-85
2021/11/16 09:34:21;;;;;;;66.93;29.53;;;7.90;99.90;;;;;;4995958;28;20061;-85
2021/11/16 09:36:52;;;;;;;71.47;30.20;;;8.00;99.90;;;;;;4995859;28;20030;-85
2021/11/16 09:39:21;;;;;;;66.77;29.93;;;7.90;99.90;;;;;;5005830;23;20049;-85
2021/11/16 09:41:48;;;;;;;;;;;7.90;99.90;;;;;;4982368;28;20026;-85
2021/11/16 09:44:21;;;;;;;65.40;28.97;;;7.90;99.90;;;;;;4998795;28;20022;-84
2021/11/16 09:46:55;;;;;;;65.40;29.10;;;7.90;99.90;;;;;;4981740;28;20027;-87
2021/11/16 09:49:37;;;;;;;64.33;29.00;;;7.90;99.90;;;;;;4978644;28;20048;-84
2021/11/16 09:52:13;;;;;;;70.53;30.77;;;7.90;99.90;;;;;;4964187;28;20102;-83
2021/11/16 09:55:02;;;;;;;70.63;30.97;;;7.90;99.90;;;;;;4980072;28;20045;-83
2021/11/16 09:57:44;;;;;;;66.68;29.08;;;7.90;99.90;;;;;;4973508;28;20054;-85
2021/11/16 10:00:21;;;;;;;62.60;28.53;;;7.90;99.90;;;;;;4973339;28;20038;-84
2021/11/16 10:02:50;;;;;;;67.17;28.93;;;7.90;99.90;;;;;;4959732;28;20035;-85
2021/11/16 10:05:20;;;;;;;58.00;26.90;;;7.90;99.90;;;;;;4964449;28;20105;-85
2021/11/16 10:07:52;;;;;;;65.60;29.17;;;7.90;99.90;;;;;;4958115;28;20041;-85
2021/11/16 10:10:20;;;;;;;59.50;28.40;;;7.90;99.90;;;;;;4975096;28;20038;-85
2021/11/16 10:12:48;;;;;;;64.00;30.40;;;7.90;99.90;;;;;;4973026;28;20023;-85
2021/11/16 10:15:17;;;;;;;62.17;30.00;;;7.90;99.90;;;;;;4973312;28;20027;-85
2021/11/16 10:17:48;;;;;;;62.92;29.38;;;7.90;99.90;;;;;;4973277;28;20034;-86
2021/11/16 10:20:17;;;;;;;70.60;30.70;;;7.90;99.90;;;;;;4988464;28;20082;-84
2021/11/16 10:22:49;;;;;;;67.07;29.08;;;8.00;99.90;;;;;;4991583;28;20487;-85
2021/11/16 10:25:18;;;;;;;62.27;28.40;;;8.00;99.90;;;;;;4975635;28;20027;-85
2021/11/16 10:27:47;;;;;;;64.32;29.38;;;8.00;99.90;;;;;;4975982;28;20165;-86
2021/11/16 10:30:21;;;;;;;69.78;27.83;;;8.00;99.90;;;;;;4977020;28;20030;-85
2021/11/16 10:33:10;;;;;;;61.37;28.83;;;8.00;99.90;;;;;;4977560;28;20471;-85
2021/11/16 10:35:50;;;;;;;61.10;27.27;;;8.10;99.90;;;;;;4984469;28;20046;-84
2021/11/16 10:38:18;;;;;;;56.97;26.63;;;8.10;99.90;;;;;;5002029;28;20407;-85
2021/11/16 10:40:45;;;;;;;58.75;26.95;;;8.10;99.90;;;;;;4975234;28;20027;-85
2021/11/16 10:43:11;;;;;;;54.90;26.23;;;8.10;99.90;;;;;;4991953;28;20495;-85
2021/11/16 10:45:44;;;;;;;58.27;26.30;;;8.10;99.90;;;;;;4991496;28;20475;-85
2021/11/16 10:48:12;;;;;;;58.10;27.17;;;8.10;99.90;;;;;;4976218;28;20038;-85
2021/11/16 10:50:40;;;;;;;55.30;26.73;;;8.00;99.90;;;;;;4991523;28;20026;-85
2021/11/16 10:53:11;;;;;;;55.13;26.00;;;8.10;99.90;;;;;;4992340;28;20661;-85
2021/11/16 10:55:52;;;;;;;59.23;27.17;;;8.00;99.90;;;;;;4992989;28;20035;-83
2021/11/16 10:58:31;;;;;;;54.07;25.10;;;8.10;99.90;;;;;;4984225;28;20161;-85
2021/11/16 11:01:05;;;;;;;55.50;25.48;;;8.00;99.90;;;;;;4974044;28;20129;-85
2021/11/16 11:03:34;;;;;;;53.70;26.50;;;8.10;99.90;;;;;;4990320;28;20034;-85
2021/11/16 11:06:10;;;;;;;55.17;25.52;;;8.10;99.90;;;;;;4959343;28;20068;-85
2021/11/16 11:08:50;;;;;;;49.90;24.17;;;8.10;99.90;;;;;;4975952;28;20125;-85
2021/11/16 11:11:28;;;;;;;50.73;24.50;;;8.10;99.90;;;;;;4974896;28;20523;-85
2021/11/16 11:14:00;;;;;;;49.80;24.13;;;8.20;99.90;;;;;;4974924;28;20035;-85
2021/11/16 11:16:29;;;;;;;51.70;25.17;;;8.10;99.90;;;;;;4958289;28;20038;-85
2021/11/16 11:18:56;;;;;;;51.67;23.63;;;8.10;99.90;;;;;;4958269;28;20030;-85
2021/11/16 11:21:38;;;;;;;51.40;24.73;;;8.20;99.90;;;;;;4974642;28;20032;-85
2021/11/16 11:24:18;;;;;;;53.67;23.70;;;8.20;99.90;;;;;;4959133;28;20081;-85
2021/11/16 11:26:56;;;;;;;62.30;24.73;;;8.20;99.90;;;;;;4975252;28;20038;-85
2021/11/16 11:29:30;;;;;;;54.15;24.67;;;8.20;99.90;;;;;;4974358;28;20045;-84
2021/11/16 11:32:18;;;;;;;49.67;23.33;;;8.20;99.90;;;;;;4974571;28;20116;-85
2021/11/16 11:34:48;;;;;;;53.07;24.13;;;8.10;99.90;;;;;;4974938;28;20053;-84
2021/11/16 11:37:27;;;;;;;63.47;26.47;;;8.20;99.90;;;;;;4974700;28;20351;-83
2021/11/16 11:40:02;;;;;;;57.28;24.67;;;8.20;99.90;;;;;;4976172;28;20042;-84
2021/11/16 11:42:30;;;;;;;50.30;22.40;;;8.20;99.90;;;;;;4973668;28;20039;-84
2021/11/16 11:45:26;;;;;;;50.67;24.10;;;8.20;99.90;;;;;;4973114;28;20050;-85
2021/11/16 11:48:01;;;;;;;48.07;23.20;;;8.20;99.90;;;;;;4969780;28;20049;-85
2021/11/16 11:50:35;;;;;;;50.43;22.50;;;8.20;99.90;;;;;;4973755;28;20027;-81
2021/11/16 11:53:10;;;;;;;52.80;23.80;;;8.20;99.90;;;;;;4974304;28;20372;-87
2021/11/16 11:55:47;;;;;;;53.47;24.57;;;8.20;99.90;;;;;;4957601;28;20031;-85
2021/11/16 11:58:15;;;;;;;49.10;23.27;;;8.20;99.90;;;;;;4957888;28;20047;-84
2021/11/16 12:00:42;;;;;;;45.70;21.83;;;8.20;99.90;;;;;;4955956;28;20148;-85
2021/11/16 12:03:09;;;;;;;43.63;21.67;;;8.20;99.90;;;;;;4956220;28;20034;-84
2021/11/16 12:05:37;;;;;;;44.30;22.43;;;8.30;99.90;;;;;;4973115;28;20046;-84
2021/11/16 12:08:04;;;;;;;48.20;22.67;;;8.30;99.90;;;;;;4973359;28;20500;-86
2021/11/16 12:10:34;;;;;;;48.87;23.03;;;8.30;99.90;;;;;;4956368;28;20138;-85
2021/11/16 12:13:01;;;;;;;46.83;22.97;;;8.20;99.90;;;;;;4956662;28;20371;-85
2021/11/16 12:15:49;;;;;;;48.43;22.67;;;8.30;99.90;;;;;;4971531;28;20027;-82
2021/11/16 12:18:17;;;;;;;57.20;23.83;;;8.30;99.90;;;;;;4973055;28;20038;-85
2021/11/16 12:20:56;;;;;;;65.03;24.57;;;8.30;99.90;;;;;;4954416;28;20027;-85
2021/11/16 12:23:50;;;;;;;45.30;22.33;;;8.30;99.90;;;;;;4970931;28;20035;-85
2021/11/16 12:26:17;;;;;;;44.33;22.37;;;8.40;99.90;;;;;;4971920;28;20038;-85
2021/11/16 12:28:44;;;;;;;44.97;21.67;;;8.30;99.90;;;;;;4956606;28;20035;-84
2021/11/16 12:31:29;;;;;;;48.77;22.60;;;8.40;99.90;;;;;;4958257;28;20046;-83
2021/11/16 12:33:57;;;;;;;52.07;22.47;;;8.40;99.90;;;;;;4975074;28;20044;-85
2021/11/16 12:36:32;;;;;;;66.35;22.90;;;8.40;99.90;;;;;;4975025;28;20027;-85
2021/11/16 12:39:20;;;;;;;49.87;21.40;;;8.40;99.90;;;;;;4959101;28;20063;-86
2021/11/16 12:41:51;;;;;;;52.47;22.70;;;8.30;99.90;;;;;;4974713;28;20066;-85
2021/11/16 12:44:23;;;;;;;46.03;21.17;;;8.40;99.90;;;;;;4976905;28;20129;-85
2021/11/16 12:47:06;;;;;;;55.13;23.37;;;8.30;99.90;;;;;;4998969;28;20042;-83
2021/11/16 12:49:44;;;;;;;46.77;22.37;;;8.40;99.90;;;;;;4979363;28;20030;-84
2021/11/16 12:52:16;;;;;;;45.77;21.53;;;8.40;99.90;;;;;;4978941;28;20085;-85
2021/11/16 12:54:42;;;;;;;46.97;21.73;;;8.30;99.90;;;;;;4978761;28;20038;-83
2021/11/16 12:57:15;;;;;;;45.10;22.30;;;8.30;99.90;;;;;;4961230;28;20081;-85
2021/11/16 12:59:44;;;;;;;40.43;19.93;;;8.30;99.90;;;;;;4992700;28;20037;-85
2021/11/16 13:02:26;;;;;;;39.58;20.00;;;8.30;99.90;;;;;;4974950;28;20380;-85
2021/11/16 13:04:55;;;;;;;46.07;20.93;;;8.30;99.90;;;;;;4975472;28;20125;-85
2021/11/16 13:07:21;;;;;;;;;;;8.30;99.90;;;;;;4975962;28;20501;-86
2021/11/16 13:10:00;;;;;;;41.13;19.17;;;8.30;99.90;;;;;;4991187;28;19906;-85
2021/11/16 13:12:39;;;;;;;;;;;8.30;99.90;;;;;;4977053;28;20034;-84
2021/11/16 13:15:08;;;;;;;39.58;19.90;;;8.20;99.90;;;;;;4983870;28;20350;-84